メインページ
METAR-TAF:

METAR-TAF

空港 :

Pittsfield Municipal Airport

Pittsfield, マサチューセッツ州, アメリカ合衆国

緯度: 42-25-38N, 経度: 073-17-21W, 海抜: 364m

現時点の気象観測

当レポートは1時間13分前の15:54(UTC)に作成
西の風 10kt
気温 13°C
湿度 28%
気圧 1012 hPa
視程: 16.1km
晴天

METAR: KPSF 071554Z AUTO 28010KT 10SM CLR 13/M05 A2988 RMK AO2 SLP110 T01281050

時間: 13:07 (17:07 UTC)

予報

当レポートは2時間48分前の14:19(UTC)に作成
予報は07日の 14時(UTC)から 08日の 12時(UTC)まで有効
西/北西の風 12kt、最大18ktの突風を伴う
視程: 10km
高度5000ftの雲はほとんどない
08日の 0100時(UTC)から
北/北西の風 3kt
視程: 10km
高度14000ftの雲は散在している
08日の 0500時(UTC)から
の風 kt
視程: 10km
高度10000ftの千切れ雲あり
近辺でにわか雨

TAF: KPSF 071419Z 0714/0812 29012G18KT P6SM FEW050 FM080100 34003KT P6SM SCT140 FM080500 00000KT P6SM VCSH BKN100

4,000以上の空港の気象観測と天気予報(METAR報とTAF報)

利用可能な観測所は地図上に黄色い丸と赤い丸で示す。

丸の上にカーソルを重ねると観測所名を参照できる。

次にクリックすると気象観測と天気予報を参照できる。

マップの切り替え:黒色「×」印の緑ボタンをクリックして拡大、「-」印の緑ボタンをクリックして縮小、緑色の三角印をクリックして隣りの地図に切り替え


METAR-TAF: